sensor_id;sensor_type;location;lat;lon;timestamp;temperature;humidity
7648;DHT22;3866;48.020;11.720;2022-10-14T00:01:31;11.50;99.90
7648;DHT22;3866;48.020;11.720;2022-10-14T00:03:58;11.50;99.90
7648;DHT22;3866;48.020;11.720;2022-10-14T00:06:27;11.60;99.90
7648;DHT22;3866;48.020;11.720;2022-10-14T00:08:55;11.60;99.90
7648;DHT22;3866;48.020;11.720;2022-10-14T00:11:23;11.60;99.90
7648;DHT22;3866;48.020;11.720;2022-10-14T00:13:54;11.60;99.90
7648;DHT22;3866;48.020;11.720;2022-10-14T00:16:25;11.50;99.90
7648;DHT22;3866;48.020;11.720;2022-10-14T00:18:52;11.60;99.90
7648;DHT22;3866;48.020;11.720;2022-10-14T00:21:19;11.50;99.90
7648;DHT22;3866;48.020;11.720;2022-10-14T00:23:46;11.60;99.90
7648;DHT22;3866;48.020;11.720;2022-10-14T00:26:15;11.60;99.90
7648;DHT22;3866;48.020;11.720;2022-10-14T00:28:42;11.50;99.90
7648;DHT22;3866;48.020;11.720;2022-10-14T00:31:09;11.50;99.90
7648;DHT22;3866;48.020;11.720;2022-10-14T00:33:37;11.50;99.90
7648;DHT22;3866;48.020;11.720;2022-10-14T00:36:05;11.50;99.90
7648;DHT22;3866;48.020;11.720;2022-10-14T00:38:33;11.50;99.90
7648;DHT22;3866;48.020;11.720;2022-10-14T00:41:00;11.60;99.90
7648;DHT22;3866;48.020;11.720;2022-10-14T00:43:27;11.60;99.90
7648;DHT22;3866;48.020;11.720;2022-10-14T00:45:54;11.60;99.90
7648;DHT22;3866;48.020;11.720;2022-10-14T00:48:23;11.50;99.90
7648;DHT22;3866;48.020;11.720;2022-10-14T00:50:54;11.60;99.90
7648;DHT22;3866;48.020;11.720;2022-10-14T00:53:22;11.50;99.90
7648;DHT22;3866;48.020;11.720;2022-10-14T00:55:49;11.60;99.90
7648;DHT22;3866;48.020;11.720;2022-10-14T00:58:16;11.60;99.90
7648;DHT22;3866;48.020;11.720;2022-10-14T01:00:43;11.60;99.90
7648;DHT22;3866;48.020;11.720;2022-10-14T01:03:17;11.60;99.90
7648;DHT22;3866;48.020;11.720;2022-10-14T01:05:48;11.60;99.90
7648;DHT22;3866;48.020;11.720;2022-10-14T01:08:24;11.50;99.90
7648;DHT22;3866;48.020;11.720;2022-10-14T01:11:04;11.50;99.90
7648;DHT22;3866;48.020;11.720;2022-10-14T01:13:35;11.50;99.90
7648;DHT22;3866;48.020;11.720;2022-10-14T01:16:08;11.40;99.90
7648;DHT22;3866;48.020;11.720;2022-10-14T01:18:51;11.40;99.90
7648;DHT22;3866;48.020;11.720;2022-10-14T01:21:24;11.40;99.90
7648;DHT22;3866;48.020;11.720;2022-10-14T01:26:58;11.50;99.90
7648;DHT22;3866;48.020;11.720;2022-10-14T01:30:06;11.50;99.90
7648;DHT22;3866;48.020;11.720;2022-10-14T01:32:38;11.40;99.90
7648;DHT22;3866;48.020;11.720;2022-10-14T01:35:13;11.40;99.90
7648;DHT22;3866;48.020;11.720;2022-10-14T01:37:51;11.50;99.90
7648;DHT22;3866;48.020;11.720;2022-10-14T01:40:26;11.60;99.90
7648;DHT22;3866;48.020;11.720;2022-10-14T01:42:54;11.40;99.90
7648;DHT22;3866;48.020;11.720;2022-10-14T01:45:25;11.50;99.90
7648;DHT22;3866;48.020;11.720;2022-10-14T01:47:55;11.40;99.90
7648;DHT22;3866;48.020;11.720;2022-10-14T01:50:24;11.40;99.90
7648;DHT22;3866;48.020;11.720;2022-10-14T01:52:56;11.40;99.90
7648;DHT22;3866;48.020;11.720;2022-10-14T01:55:27;11.40;99.90
7648;DHT22;3866;48.020;11.720;2022-10-14T01:57:56;11.30;99.90
7648;DHT22;3866;48.020;11.720;2022-10-14T02:00:25;11.30;99.90
7648;DHT22;3866;48.020;11.720;2022-10-14T02:02:52;11.30;99.90
7648;DHT22;3866;48.020;11.720;2022-10-14T02:05:21;11.30;99.90
7648;DHT22;3866;48.020;11.720;2022-10-14T02:07:56;11.40;99.90
7648;DHT22;3866;48.020;11.720;2022-10-14T02:10:32;11.30;99.90
7648;DHT22;3866;48.020;11.720;2022-10-14T02:13:15;11.30;99.90
7648;DHT22;3866;48.020;11.720;2022-10-14T02:15:53;11.30;99.90
7648;DHT22;3866;48.020;11.720;2022-10-14T02:18:26;11.30;99.90
7648;DHT22;3866;48.020;11.720;2022-10-14T02:21:11;11.30;99.90
7648;DHT22;3866;48.020;11.720;2022-10-14T02:23:44;11.30;99.90
7648;DHT22;3866;48.020;11.720;2022-10-14T02:26:13;11.30;99.90
7648;DHT22;3866;48.020;11.720;2022-10-14T02:28:42;11.30;99.90
7648;DHT22;3866;48.020;11.720;2022-10-14T02:31:13;11.30;99.90
7648;DHT22;3866;48.020;11.720;2022-10-14T02:33:44;11.30;99.90
7648;DHT22;3866;48.020;11.720;2022-10-14T02:36:16;11.30;99.90
7648;DHT22;3866;48.020;11.720;2022-10-14T02:38:45;11.30;99.90
7648;DHT22;3866;48.020;11.720;2022-10-14T02:41:14;11.30;99.90
7648;DHT22;3866;48.020;11.720;2022-10-14T02:43:44;11.30;99.90
7648;DHT22;3866;48.020;11.720;2022-10-14T02:46:12;11.30;99.90
7648;DHT22;3866;48.020;11.720;2022-10-14T02:48:39;11.30;99.90
7648;DHT22;3866;48.020;11.720;2022-10-14T02:51:06;11.30;99.90
7648;DHT22;3866;48.020;11.720;2022-10-14T02:53:33;11.30;99.90
7648;DHT22;3866;48.020;11.720;2022-10-14T02:56:00;11.30;99.90
7648;DHT22;3866;48.020;11.720;2022-10-14T02:58:27;11.30;99.90
7648;DHT22;3866;48.020;11.720;2022-10-14T03:00:53;11.30;99.90
7648;DHT22;3866;48.020;11.720;2022-10-14T03:03:22;11.30;99.90
7648;DHT22;3866;48.020;11.720;2022-10-14T03:05:48;11.30;99.90
7648;DHT22;3866;48.020;11.720;2022-10-14T03:08:15;11.30;99.90
7648;DHT22;3866;48.020;11.720;2022-10-14T03:10:45;11.30;99.90
7648;DHT22;3866;48.020;11.720;2022-10-14T03:13:12;11.30;99.90
7648;DHT22;3866;48.020;11.720;2022-10-14T03:15:39;11.30;99.90
7648;DHT22;3866;48.020;11.720;2022-10-14T03:18:05;11.30;99.90
7648;DHT22;3866;48.020;11.720;2022-10-14T03:20:34;11.30;99.90
7648;DHT22;3866;48.020;11.720;2022-10-14T03:23:01;11.30;99.90
7648;DHT22;3866;48.020;11.720;2022-10-14T03:25:28;11.30;99.90
7648;DHT22;3866;48.020;11.720;2022-10-14T03:27:56;11.40;99.90
7648;DHT22;3866;48.020;11.720;2022-10-14T03:30:23;11.30;99.90
7648;DHT22;3866;48.020;11.720;2022-10-14T03:32:50;11.40;99.90
7648;DHT22;3866;48.020;11.720;2022-10-14T03:35:17;11.40;99.90
7648;DHT22;3866;48.020;11.720;2022-10-14T03:37:48;11.30;99.90
7648;DHT22;3866;48.020;11.720;2022-10-14T03:40:17;11.40;99.90
7648;DHT22;3866;48.020;11.720;2022-10-14T03:42:44;11.40;99.90
7648;DHT22;3866;48.020;11.720;2022-10-14T03:45:11;11.40;99.90
7648;DHT22;3866;48.020;11.720;2022-10-14T03:47:38;11.40;99.90
7648;DHT22;3866;48.020;11.720;2022-10-14T03:50:05;11.40;99.90
7648;DHT22;3866;48.020;11.720;2022-10-14T03:52:32;11.40;99.90
7648;DHT22;3866;48.020;11.720;2022-10-14T03:55:02;11.40;99.90
7648;DHT22;3866;48.020;11.720;2022-10-14T03:57:29;11.40;99.90
7648;DHT22;3866;48.020;11.720;2022-10-14T03:59:56;11.40;99.90
7648;DHT22;3866;48.020;11.720;2022-10-14T04:02:22;11.50;99.90
7648;DHT22;3866;48.020;11.720;2022-10-14T04:04:49;11.50;99.90
7648;DHT22;3866;48.020;11.720;2022-10-14T04:07:16;11.50;99.90
7648;DHT22;3866;48.020;11.720;2022-10-14T04:09:43;11.50;99.90
7648;DHT22;3866;48.020;11.720;2022-10-14T04:12:11;11.50;99.90
7648;DHT22;3866;48.020;11.720;2022-10-14T04:14:38;11.50;99.90
7648;DHT22;3866;48.020;11.720;2022-10-14T04:17:05;11.50;99.90
7648;DHT22;3866;48.020;11.720;2022-10-14T04:19:32;11.50;99.90
7648;DHT22;3866;48.020;11.720;2022-10-14T04:21:58;11.50;99.90
7648;DHT22;3866;48.020;11.720;2022-10-14T04:24:25;11.60;99.90
7648;DHT22;3866;48.020;11.720;2022-10-14T04:26:52;11.50;99.90
7648;DHT22;3866;48.020;11.720;2022-10-14T04:29:21;11.40;99.90
7648;DHT22;3866;48.020;11.720;2022-10-14T04:31:48;11.40;99.90
7648;DHT22;3866;48.020;11.720;2022-10-14T04:34:15;11.30;99.90
7648;DHT22;3866;48.020;11.720;2022-10-14T04:36:42;11.40;99.90
7648;DHT22;3866;48.020;11.720;2022-10-14T04:39:08;11.40;99.90
7648;DHT22;3866;48.020;11.720;2022-10-14T04:41:35;11.50;99.90
7648;DHT22;3866;48.020;11.720;2022-10-14T04:44:02;11.40;99.90
7648;DHT22;3866;48.020;11.720;2022-10-14T04:46:31;11.40;99.90
7648;DHT22;3866;48.020;11.720;2022-10-14T04:48:58;11.40;99.90
7648;DHT22;3866;48.020;11.720;2022-10-14T04:51:25;11.30;99.90
7648;DHT22;3866;48.020;11.720;2022-10-14T04:53:51;11.30;99.90
7648;DHT22;3866;48.020;11.720;2022-10-14T04:56:18;11.30;99.90
7648;DHT22;3866;48.020;11.720;2022-10-14T04:58:45;11.40;99.90
7648;DHT22;3866;48.020;11.720;2022-10-14T05:01:12;11.40;99.90
7648;DHT22;3866;48.020;11.720;2022-10-14T05:03:40;11.30;99.90
7648;DHT22;3866;48.020;11.720;2022-10-14T05:06:07;11.30;99.90
7648;DHT22;3866;48.020;11.720;2022-10-14T05:08:34;11.20;99.90
7648;DHT22;3866;48.020;11.720;2022-10-14T05:11:01;11.20;99.90
7648;DHT22;3866;48.020;11.720;2022-10-14T05:13:29;11.20;99.90
7648;DHT22;3866;48.020;11.720;2022-10-14T05:15:56;11.30;99.90
7648;DHT22;3866;48.020;11.720;2022-10-14T05:18:23;11.30;99.90
7648;DHT22;3866;48.020;11.720;2022-10-14T05:20:51;11.20;99.90
7648;DHT22;3866;48.020;11.720;2022-10-14T05:23:18;11.20;99.90
7648;DHT22;3866;48.020;11.720;2022-10-14T05:25:45;11.20;99.90
7648;DHT22;3866;48.020;11.720;2022-10-14T05:28:11;11.20;99.90
7648;DHT22;3866;48.020;11.720;2022-10-14T05:30:41;11.30;99.90
7648;DHT22;3866;48.020;11.720;2022-10-14T05:33:08;11.20;99.90
7648;DHT22;3866;48.020;11.720;2022-10-14T05:35:35;11.20;99.90
7648;DHT22;3866;48.020;11.720;2022-10-14T05:38:03;11.10;99.90
7648;DHT22;3866;48.020;11.720;2022-10-14T05:40:30;11.10;99.90
7648;DHT22;3866;48.020;11.720;2022-10-14T05:42:57;11.10;99.90
7648;DHT22;3866;48.020;11.720;2022-10-14T05:45:24;11.10;99.90
7648;DHT22;3866;48.020;11.720;2022-10-14T05:47:51;11.10;99.90
7648;DHT22;3866;48.020;11.720;2022-10-14T05:50:18;11.20;99.90
7648;DHT22;3866;48.020;11.720;2022-10-14T05:52:46;11.20;99.90
7648;DHT22;3866;48.020;11.720;2022-10-14T05:55:14;11.30;99.90
7648;DHT22;3866;48.020;11.720;2022-10-14T05:57:41;11.30;99.90
7648;DHT22;3866;48.020;11.720;2022-10-14T06:00:10;11.30;99.90
7648;DHT22;3866;48.020;11.720;2022-10-14T06:02:38;11.40;99.90
7648;DHT22;3866;48.020;11.720;2022-10-14T06:05:05;11.40;99.90
7648;DHT22;3866;48.020;11.720;2022-10-14T06:07:34;11.40;99.90
7648;DHT22;3866;48.020;11.720;2022-10-14T06:10:01;11.40;99.90
7648;DHT22;3866;48.020;11.720;2022-10-14T06:12:29;11.50;99.90
7648;DHT22;3866;48.020;11.720;2022-10-14T06:14:57;11.50;99.90
7648;DHT22;3866;48.020;11.720;2022-10-14T06:17:24;11.60;99.90
7648;DHT22;3866;48.020;11.720;2022-10-14T06:19:51;11.50;99.90
7648;DHT22;3866;48.020;11.720;2022-10-14T06:22:18;11.50;99.90
7648;DHT22;3866;48.020;11.720;2022-10-14T06:24:45;11.60;99.90
7648;DHT22;3866;48.020;11.720;2022-10-14T06:27:12;11.50;99.90
7648;DHT22;3866;48.020;11.720;2022-10-14T06:29:40;11.50;99.90
7648;DHT22;3866;48.020;11.720;2022-10-14T06:32:08;11.50;99.90
7648;DHT22;3866;48.020;11.720;2022-10-14T06:34:35;11.50;99.90
7648;DHT22;3866;48.020;11.720;2022-10-14T06:37:02;11.70;99.90
7648;DHT22;3866;48.020;11.720;2022-10-14T06:39:29;11.70;99.90
7648;DHT22;3866;48.020;11.720;2022-10-14T06:41:56;11.80;99.90
7648;DHT22;3866;48.020;11.720;2022-10-14T06:44:23;11.80;99.90
7648;DHT22;3866;48.020;11.720;2022-10-14T06:46:51;11.80;99.90
7648;DHT22;3866;48.020;11.720;2022-10-14T06:49:18;11.80;99.90
7648;DHT22;3866;48.020;11.720;2022-10-14T06:51:45;11.90;99.90
7648;DHT22;3866;48.020;11.720;2022-10-14T06:54:11;12.00;99.90
7648;DHT22;3866;48.020;11.720;2022-10-14T06:56:38;11.90;99.90
7648;DHT22;3866;48.020;11.720;2022-10-14T06:59:05;11.80;99.90
7648;DHT22;3866;48.020;11.720;2022-10-14T07:01:32;11.80;99.90
7648;DHT22;3866;48.020;11.720;2022-10-14T07:04:00;11.80;99.90
7648;DHT22;3866;48.020;11.720;2022-10-14T07:06:27;11.80;99.90
7648;DHT22;3866;48.020;11.720;2022-10-14T07:08:54;11.90;99.90
7648;DHT22;3866;48.020;11.720;2022-10-14T07:11:21;12.00;99.90
7648;DHT22;3866;48.020;11.720;2022-10-14T07:13:48;12.00;99.90
7648;DHT22;3866;48.020;11.720;2022-10-14T07:16:14;11.90;99.90
7648;DHT22;3866;48.020;11.720;2022-10-14T07:18:41;12.10;99.90
7648;DHT22;3866;48.020;11.720;2022-10-14T07:21:09;12.30;99.90
7648;DHT22;3866;48.020;11.720;2022-10-14T07:23:36;12.50;99.90
7648;DHT22;3866;48.020;11.720;2022-10-14T07:26:04;12.60;99.90
7648;DHT22;3866;48.020;11.720;2022-10-14T07:28:31;12.70;99.90
7648;DHT22;3866;48.020;11.720;2022-10-14T07:31:00;13.00;99.90
7648;DHT22;3866;48.020;11.720;2022-10-14T07:33:27;13.10;99.90
7648;DHT22;3866;48.020;11.720;2022-10-14T07:35:55;13.20;99.90
7648;DHT22;3866;48.020;11.720;2022-10-14T07:38:23;14.00;99.90
7648;DHT22;3866;48.020;11.720;2022-10-14T07:40:58;14.20;99.90
7648;DHT22;3866;48.020;11.720;2022-10-14T07:43:25;14.60;99.90
7648;DHT22;3866;48.020;11.720;2022-10-14T07:45:52;15.10;99.90
7648;DHT22;3866;48.020;11.720;2022-10-14T07:48:25;15.30;99.90
7648;DHT22;3866;48.020;11.720;2022-10-14T07:50:53;15.90;99.90
7648;DHT22;3866;48.020;11.720;2022-10-14T07:53:20;17.50;99.90
7648;DHT22;3866;48.020;11.720;2022-10-14T07:55:48;18.80;99.90
7648;DHT22;3866;48.020;11.720;2022-10-14T07:58:18;18.60;99.90
7648;DHT22;3866;48.020;11.720;2022-10-14T08:00:46;18.50;99.90
7648;DHT22;3866;48.020;11.720;2022-10-14T08:03:13;18.10;99.90
7648;DHT22;3866;48.020;11.720;2022-10-14T08:05:40;17.80;99.90
7648;DHT22;3866;48.020;11.720;2022-10-14T08:08:08;17.00;99.90
7648;DHT22;3866;48.020;11.720;2022-10-14T08:10:36;16.90;99.90
7648;DHT22;3866;48.020;11.720;2022-10-14T08:13:04;17.60;99.90
7648;DHT22;3866;48.020;11.720;2022-10-14T08:15:33;18.60;99.90
7648;DHT22;3866;48.020;11.720;2022-10-14T08:18:03;18.30;99.90
7648;DHT22;3866;48.020;11.720;2022-10-14T08:20:30;17.50;99.90
7648;DHT22;3866;48.020;11.720;2022-10-14T08:22:57;18.10;99.90
7648;DHT22;3866;48.020;11.720;2022-10-14T08:25:23;18.90;99.90
7648;DHT22;3866;48.020;11.720;2022-10-14T08:27:50;19.80;99.90
7648;DHT22;3866;48.020;11.720;2022-10-14T08:30:20;20.10;99.90
7648;DHT22;3866;48.020;11.720;2022-10-14T08:32:47;18.60;99.90
7648;DHT22;3866;48.020;11.720;2022-10-14T08:35:14;19.30;99.90
7648;DHT22;3866;48.020;11.720;2022-10-14T08:37:41;19.70;99.90
7648;DHT22;3866;48.020;11.720;2022-10-14T08:40:11;18.80;99.90
7648;DHT22;3866;48.020;11.720;2022-10-14T08:42:43;19.40;99.90
7648;DHT22;3866;48.020;11.720;2022-10-14T08:45:18;20.20;99.90
7648;DHT22;3866;48.020;11.720;2022-10-14T08:47:51;20.40;99.90
7648;DHT22;3866;48.020;11.720;2022-10-14T08:50:24;19.00;99.90
7648;DHT22;3866;48.020;11.720;2022-10-14T08:52:56;18.60;99.90
7648;DHT22;3866;48.020;11.720;2022-10-14T08:55:29;18.80;99.90
7648;DHT22;3866;48.020;11.720;2022-10-14T08:58:01;18.70;99.90
7648;DHT22;3866;48.020;11.720;2022-10-14T09:00:30;17.20;99.90
7648;DHT22;3866;48.020;11.720;2022-10-14T09:03:04;17.20;99.90
7648;DHT22;3866;48.020;11.720;2022-10-14T09:05:37;18.00;99.90
7648;DHT22;3866;48.020;11.720;2022-10-14T09:08:05;18.20;99.90
7648;DHT22;3866;48.020;11.720;2022-10-14T09:10:39;17.20;99.90
7648;DHT22;3866;48.020;11.720;2022-10-14T09:13:10;16.70;99.90
7648;DHT22;3866;48.020;11.720;2022-10-14T09:15:40;16.60;99.90
7648;DHT22;3866;48.020;11.720;2022-10-14T09:18:19;17.50;99.90
7648;DHT22;3866;48.020;11.720;2022-10-14T09:20:47;17.60;99.90
7648;DHT22;3866;48.020;11.720;2022-10-14T09:23:16;17.20;99.90
7648;DHT22;3866;48.020;11.720;2022-10-14T09:25:53;17.70;99.90
7648;DHT22;3866;48.020;11.720;2022-10-14T09:28:26;17.70;99.90
7648;DHT22;3866;48.020;11.720;2022-10-14T09:30:55;18.10;99.90
7648;DHT22;3866;48.020;11.720;2022-10-14T09:33:25;17.90;99.90
7648;DHT22;3866;48.020;11.720;2022-10-14T09:35:53;17.60;99.90
7648;DHT22;3866;48.020;11.720;2022-10-14T09:38:23;17.50;99.90
7648;DHT22;3866;48.020;11.720;2022-10-14T09:40:54;17.50;99.90
7648;DHT22;3866;48.020;11.720;2022-10-14T09:43:22;17.70;99.90
7648;DHT22;3866;48.020;11.720;2022-10-14T09:45:56;18.40;99.90
7648;DHT22;3866;48.020;11.720;2022-10-14T09:48:31;18.60;99.90
7648;DHT22;3866;48.020;11.720;2022-10-14T09:51:04;18.90;99.90
7648;DHT22;3866;48.020;11.720;2022-10-14T09:53:35;19.10;99.90
7648;DHT22;3866;48.020;11.720;2022-10-14T09:56:04;19.10;99.90
7648;DHT22;3866;48.020;11.720;2022-10-14T09:58:35;19.10;99.90
7648;DHT22;3866;48.020;11.720;2022-10-14T10:01:05;18.60;99.90
7648;DHT22;3866;48.020;11.720;2022-10-14T10:03:38;18.60;99.90
7648;DHT22;3866;48.020;11.720;2022-10-14T10:06:10;18.80;99.90
7648;DHT22;3866;48.020;11.720;2022-10-14T10:08:40;18.30;99.90
7648;DHT22;3866;48.020;11.720;2022-10-14T10:11:09;18.40;99.90
7648;DHT22;3866;48.020;11.720;2022-10-14T10:13:40;18.20;99.90
7648;DHT22;3866;48.020;11.720;2022-10-14T10:16:19;18.80;99.90
7648;DHT22;3866;48.020;11.720;2022-10-14T10:18:48;18.70;99.90
7648;DHT22;3866;48.020;11.720;2022-10-14T10:21:16;18.60;99.90
7648;DHT22;3866;48.020;11.720;2022-10-14T10:23:53;18.50;99.90
7648;DHT22;3866;48.020;11.720;2022-10-14T10:26:22;18.90;99.90
7648;DHT22;3866;48.020;11.720;2022-10-14T10:28:52;19.20;99.90
7648;DHT22;3866;48.020;11.720;2022-10-14T10:34:49;19.30;99.90
7648;DHT22;3866;48.020;11.720;2022-10-14T10:37:24;19.20;99.90
7648;DHT22;3866;48.020;11.720;2022-10-14T10:40:02;18.70;99.90
7648;DHT22;3866;48.020;11.720;2022-10-14T10:42:33;18.50;99.90
7648;DHT22;3866;48.020;11.720;2022-10-14T10:45:14;18.30;99.90
7648;DHT22;3866;48.020;11.720;2022-10-14T10:47:43;18.60;99.90
7648;DHT22;3866;48.020;11.720;2022-10-14T10:50:24;18.60;99.90
7648;DHT22;3866;48.020;11.720;2022-10-14T10:56:11;18.50;99.90
7648;DHT22;3866;48.020;11.720;2022-10-14T10:58:41;18.70;99.90
7648;DHT22;3866;48.020;11.720;2022-10-14T11:01:22;18.90;99.90
7648;DHT22;3866;48.020;11.720;2022-10-14T11:04:08;19.10;99.90
7648;DHT22;3866;48.020;11.720;2022-10-14T11:06:47;18.90;99.90
7648;DHT22;3866;48.020;11.720;2022-10-14T11:09:40;18.40;99.90
7648;DHT22;3866;48.020;11.720;2022-10-14T11:12:29;18.30;99.90
7648;DHT22;3866;48.020;11.720;2022-10-14T11:15:19;18.40;99.90
7648;DHT22;3866;48.020;11.720;2022-10-14T11:17:54;18.90;99.90
7648;DHT22;3866;48.020;11.720;2022-10-14T11:20:29;18.60;99.90
7648;DHT22;3866;48.020;11.720;2022-10-14T11:23:23;18.30;99.90
7648;DHT22;3866;48.020;11.720;2022-10-14T11:26:01;18.40;99.90
7648;DHT22;3866;48.020;11.720;2022-10-14T11:28:32;18.40;99.90
7648;DHT22;3866;48.020;11.720;2022-10-14T11:31:10;18.40;99.90
7648;DHT22;3866;48.020;11.720;2022-10-14T11:33:49;18.40;99.90
7648;DHT22;3866;48.020;11.720;2022-10-14T11:36:28;18.20;99.90
7648;DHT22;3866;48.020;11.720;2022-10-14T11:39:07;18.00;99.90
7648;DHT22;3866;48.020;11.720;2022-10-14T11:41:52;17.90;99.90
7648;DHT22;3866;48.020;11.720;2022-10-14T11:44:30;18.20;99.90
7648;DHT22;3866;48.020;11.720;2022-10-14T11:47:01;18.80;99.90
7648;DHT22;3866;48.020;11.720;2022-10-14T11:49:32;18.30;99.90
7648;DHT22;3866;48.020;11.720;2022-10-14T11:52:05;18.30;99.90
7648;DHT22;3866;48.020;11.720;2022-10-14T11:54:37;18.10;99.90
7648;DHT22;3866;48.020;11.720;2022-10-14T11:57:09;18.20;99.90
7648;DHT22;3866;48.020;11.720;2022-10-14T11:59:43;17.90;99.90
7648;DHT22;3866;48.020;11.720;2022-10-14T12:02:32;18.30;99.90
7648;DHT22;3866;48.020;11.720;2022-10-14T12:05:05;18.20;99.90
7648;DHT22;3866;48.020;11.720;2022-10-14T12:07:39;18.10;99.90
7648;DHT22;3866;48.020;11.720;2022-10-14T12:10:15;18.10;99.90
7648;DHT22;3866;48.020;11.720;2022-10-14T12:12:43;17.90;99.90
7648;DHT22;3866;48.020;11.720;2022-10-14T12:15:15;17.90;99.90
7648;DHT22;3866;48.020;11.720;2022-10-14T12:17:46;18.10;99.90
7648;DHT22;3866;48.020;11.720;2022-10-14T12:20:22;18.10;99.90
7648;DHT22;3866;48.020;11.720;2022-10-14T12:22:51;18.20;99.90
7648;DHT22;3866;48.020;11.720;2022-10-14T12:25:21;18.20;99.90
7648;DHT22;3866;48.020;11.720;2022-10-14T12:27:50;18.00;99.90
7648;DHT22;3866;48.020;11.720;2022-10-14T12:30:32;18.10;99.90
7648;DHT22;3866;48.020;11.720;2022-10-14T12:33:01;17.80;99.90
7648;DHT22;3866;48.020;11.720;2022-10-14T12:35:46;18.00;99.90
7648;DHT22;3866;48.020;11.720;2022-10-14T12:38:13;18.10;99.90
7648;DHT22;3866;48.020;11.720;2022-10-14T12:40:41;18.00;99.90
7648;DHT22;3866;48.020;11.720;2022-10-14T12:43:29;18.00;99.90
7648;DHT22;3866;48.020;11.720;2022-10-14T12:46:08;17.80;99.90
7648;DHT22;3866;48.020;11.720;2022-10-14T12:48:43;17.70;99.90
7648;DHT22;3866;48.020;11.720;2022-10-14T12:51:13;17.80;99.90
7648;DHT22;3866;48.020;11.720;2022-10-14T12:53:49;17.60;99.90
7648;DHT22;3866;48.020;11.720;2022-10-14T12:56:42;17.60;99.90
7648;DHT22;3866;48.020;11.720;2022-10-14T12:59:20;17.60;99.90
7648;DHT22;3866;48.020;11.720;2022-10-14T13:01:54;17.60;99.90
7648;DHT22;3866;48.020;11.720;2022-10-14T13:04:22;17.50;99.90
7648;DHT22;3866;48.020;11.720;2022-10-14T13:07:30;17.40;99.90
7648;DHT22;3866;48.020;11.720;2022-10-14T13:09:58;17.50;99.90
7648;DHT22;3866;48.020;11.720;2022-10-14T13:12:41;17.40;99.90
7648;DHT22;3866;48.020;11.720;2022-10-14T13:18:50;17.40;99.90
7648;DHT22;3866;48.020;11.720;2022-10-14T13:21:51;17.60;99.90
7648;DHT22;3866;48.020;11.720;2022-10-14T13:24:24;17.70;99.90
7648;DHT22;3866;48.020;11.720;2022-10-14T13:27:04;17.50;99.90
7648;DHT22;3866;48.020;11.720;2022-10-14T13:29:46;17.60;99.90
7648;DHT22;3866;48.020;11.720;2022-10-14T13:32:26;17.70;99.90
7648;DHT22;3866;48.020;11.720;2022-10-14T13:35:02;17.80;99.90
7648;DHT22;3866;48.020;11.720;2022-10-14T13:37:33;17.70;99.90
7648;DHT22;3866;48.020;11.720;2022-10-14T13:40:16;17.60;99.90
7648;DHT22;3866;48.020;11.720;2022-10-14T13:42:46;17.50;99.90
7648;DHT22;3866;48.020;11.720;2022-10-14T13:45:16;17.40;99.90
7648;DHT22;3866;48.020;11.720;2022-10-14T13:47:47;17.40;99.90
7648;DHT22;3866;48.020;11.720;2022-10-14T13:50:16;17.50;99.90
7648;DHT22;3866;48.020;11.720;2022-10-14T13:52:47;17.30;99.90
7648;DHT22;3866;48.020;11.720;2022-10-14T13:55:18;17.30;99.90
7648;DHT22;3866;48.020;11.720;2022-10-14T13:58:02;17.20;99.90
7648;DHT22;3866;48.020;11.720;2022-10-14T14:00:32;17.30;99.90
7648;DHT22;3866;48.020;11.720;2022-10-14T14:03:01;17.30;99.90
7648;DHT22;3866;48.020;11.720;2022-10-14T14:05:34;17.20;99.90
7648;DHT22;3866;48.020;11.720;2022-10-14T14:08:02;17.10;99.90
7648;DHT22;3866;48.020;11.720;2022-10-14T14:10:29;17.10;99.90
7648;DHT22;3866;48.020;11.720;2022-10-14T14:12:57;17.10;99.90
7648;DHT22;3866;48.020;11.720;2022-10-14T14:15:26;16.90;99.90
7648;DHT22;3866;48.020;11.720;2022-10-14T14:17:55;16.60;99.90
7648;DHT22;3866;48.020;11.720;2022-10-14T14:20:24;16.30;99.90
7648;DHT22;3866;48.020;11.720;2022-10-14T14:22:53;16.20;99.90
7648;DHT22;3866;48.020;11.720;2022-10-14T14:25:23;15.80;99.90
7648;DHT22;3866;48.020;11.720;2022-10-14T14:27:53;15.70;99.90
7648;DHT22;3866;48.020;11.720;2022-10-14T14:30:25;15.60;99.90
7648;DHT22;3866;48.020;11.720;2022-10-14T14:32:54;15.50;99.90
7648;DHT22;3866;48.020;11.720;2022-10-14T14:35:23;15.20;99.90
7648;DHT22;3866;48.020;11.720;2022-10-14T14:37:50;15.10;99.90
7648;DHT22;3866;48.020;11.720;2022-10-14T14:40:19;15.00;99.90
7648;DHT22;3866;48.020;11.720;2022-10-14T14:42:49;15.00;99.90
7648;DHT22;3866;48.020;11.720;2022-10-14T14:45:19;14.90;99.90
7648;DHT22;3866;48.020;11.720;2022-10-14T14:47:47;15.00;99.90
7648;DHT22;3866;48.020;11.720;2022-10-14T14:50:17;15.00;99.90
7648;DHT22;3866;48.020;11.720;2022-10-14T14:52:47;14.90;99.90
7648;DHT22;3866;48.020;11.720;2022-10-14T14:55:36;14.90;99.90
7648;DHT22;3866;48.020;11.720;2022-10-14T14:58:06;15.00;99.90
7648;DHT22;3866;48.020;11.720;2022-10-14T15:00:43;15.10;99.90
7648;DHT22;3866;48.020;11.720;2022-10-14T15:03:10;15.40;99.90
7648;DHT22;3866;48.020;11.720;2022-10-14T15:05:38;15.40;99.90
7648;DHT22;3866;48.020;11.720;2022-10-14T15:08:13;15.30;99.90
7648;DHT22;3866;48.020;11.720;2022-10-14T15:10:46;15.40;99.90
7648;DHT22;3866;48.020;11.720;2022-10-14T15:13:31;15.30;99.90
7648;DHT22;3866;48.020;11.720;2022-10-14T15:16:08;15.20;99.90
7648;DHT22;3866;48.020;11.720;2022-10-14T15:18:35;15.20;99.90
7648;DHT22;3866;48.020;11.720;2022-10-14T15:21:14;15.10;99.90
7648;DHT22;3866;48.020;11.720;2022-10-14T15:23:44;15.10;99.90
7648;DHT22;3866;48.020;11.720;2022-10-14T15:26:28;15.30;99.90
7648;DHT22;3866;48.020;11.720;2022-10-14T15:29:04;15.20;99.90
7648;DHT22;3866;48.020;11.720;2022-10-14T15:31:31;15.10;99.90
7648;DHT22;3866;48.020;11.720;2022-10-14T15:33:58;15.00;99.90
7648;DHT22;3866;48.020;11.720;2022-10-14T15:36:28;15.00;99.90
7648;DHT22;3866;48.020;11.720;2022-10-14T15:38:56;15.00;99.90
7648;DHT22;3866;48.020;11.720;2022-10-14T15:41:26;14.90;99.90
7648;DHT22;3866;48.020;11.720;2022-10-14T15:43:53;14.80;99.90
7648;DHT22;3866;48.020;11.720;2022-10-14T15:46:20;14.90;99.90
7648;DHT22;3866;48.020;11.720;2022-10-14T15:49:13;14.90;99.90
7648;DHT22;3866;48.020;11.720;2022-10-14T15:51:42;15.00;99.90
7648;DHT22;3866;48.020;11.720;2022-10-14T15:54:10;15.10;99.90
7648;DHT22;3866;48.020;11.720;2022-10-14T15:56:37;15.00;99.90
7648;DHT22;3866;48.020;11.720;2022-10-14T15:59:04;14.80;99.90
7648;DHT22;3866;48.020;11.720;2022-10-14T16:01:33;14.90;99.90
7648;DHT22;3866;48.020;11.720;2022-10-14T16:04:02;14.80;99.90
7648;DHT22;3866;48.020;11.720;2022-10-14T16:06:29;14.60;99.90
7648;DHT22;3866;48.020;11.720;2022-10-14T16:08:58;14.50;99.90
7648;DHT22;3866;48.020;11.720;2022-10-14T16:11:26;14.50;99.90
7648;DHT22;3866;48.020;11.720;2022-10-14T16:13:54;14.40;99.90
7648;DHT22;3866;48.020;11.720;2022-10-14T16:16:24;14.40;99.90
7648;DHT22;3866;48.020;11.720;2022-10-14T16:18:53;14.40;99.90
7648;DHT22;3866;48.020;11.720;2022-10-14T16:21:20;14.30;99.90